sensor_id;sensor_type;location;lat;lon;timestamp;P1;durP1;ratioP1;P2;durP2;ratioP2
30533;SDS011;17318;52.390;9.754;2023-03-11T00:01:04;22.92;;;11.63;;
30533;SDS011;17318;52.390;9.754;2023-03-11T00:03:30;20.92;;;11.63;;
30533;SDS011;17318;52.390;9.754;2023-03-11T00:05:56;18.00;;;10.43;;
30533;SDS011;17318;52.390;9.754;2023-03-11T00:08:25;19.08;;;10.80;;
30533;SDS011;17318;52.390;9.754;2023-03-11T00:10:56;17.90;;;10.80;;
30533;SDS011;17318;52.390;9.754;2023-03-11T00:13:24;18.88;;;10.68;;
30533;SDS011;17318;52.390;9.754;2023-03-11T00:15:51;18.75;;;10.32;;
30533;SDS011;17318;52.390;9.754;2023-03-11T00:18:21;19.85;;;10.88;;
30533;SDS011;17318;52.390;9.754;2023-03-11T00:20:51;19.10;;;10.43;;
30533;SDS011;17318;52.390;9.754;2023-03-11T00:23:17;17.38;;;10.15;;
30533;SDS011;17318;52.390;9.754;2023-03-11T00:25:43;19.88;;;10.57;;
30533;SDS011;17318;52.390;9.754;2023-03-11T00:28:11;19.30;;;10.63;;
30533;SDS011;17318;52.390;9.754;2023-03-11T00:30:38;16.58;;;9.35;;
30533;SDS011;17318;52.390;9.754;2023-03-11T00:33:05;15.88;;;9.52;;
30533;SDS011;17318;52.390;9.754;2023-03-11T00:35:32;15.13;;;9.65;;
30533;SDS011;17318;52.390;9.754;2023-03-11T00:38:00;16.57;;;9.47;;
30533;SDS011;17318;52.390;9.754;2023-03-11T00:40:29;16.58;;;9.45;;
30533;SDS011;17318;52.390;9.754;2023-03-11T00:42:56;13.70;;;8.85;;
30533;SDS011;17318;52.390;9.754;2023-03-11T00:45:22;16.20;;;9.82;;
30533;SDS011;17318;52.390;9.754;2023-03-11T00:47:49;15.65;;;8.55;;
30533;SDS011;17318;52.390;9.754;2023-03-11T00:50:17;12.95;;;8.55;;
30533;SDS011;17318;52.390;9.754;2023-03-11T00:52:52;13.85;;;8.00;;
30533;SDS011;17318;52.390;9.754;2023-03-11T00:55:19;11.95;;;8.00;;
30533;SDS011;17318;52.390;9.754;2023-03-11T00:57:46;15.15;;;8.27;;
30533;SDS011;17318;52.390;9.754;2023-03-11T01:00:16;13.57;;;8.60;;
30533;SDS011;17318;52.390;9.754;2023-03-11T01:02:44;11.20;;;6.85;;
30533;SDS011;17318;52.390;9.754;2023-03-11T01:05:10;9.65;;;6.53;;
30533;SDS011;17318;52.390;9.754;2023-03-11T01:07:37;9.27;;;5.65;;
30533;SDS011;17318;52.390;9.754;2023-03-11T01:10:03;10.15;;;6.00;;
30533;SDS011;17318;52.390;9.754;2023-03-11T01:12:30;9.63;;;5.30;;
30533;SDS011;17318;52.390;9.754;2023-03-11T01:14:56;8.80;;;5.50;;
30533;SDS011;17318;52.390;9.754;2023-03-11T01:17:22;9.10;;;4.53;;
30533;SDS011;17318;52.390;9.754;2023-03-11T01:19:48;7.57;;;4.30;;
30533;SDS011;17318;52.390;9.754;2023-03-11T01:22:14;6.97;;;3.63;;
30533;SDS011;17318;52.390;9.754;2023-03-11T01:24:40;6.90;;;3.80;;
30533;SDS011;17318;52.390;9.754;2023-03-11T01:27:06;5.35;;;3.45;;
30533;SDS011;17318;52.390;9.754;2023-03-11T01:29:32;6.47;;;3.38;;
30533;SDS011;17318;52.390;9.754;2023-03-11T01:31:57;4.47;;;2.70;;
30533;SDS011;17318;52.390;9.754;2023-03-11T01:34:23;4.75;;;2.75;;
30533;SDS011;17318;52.390;9.754;2023-03-11T01:36:50;5.68;;;3.28;;
30533;SDS011;17318;52.390;9.754;2023-03-11T01:39:16;7.40;;;3.08;;
30533;SDS011;17318;52.390;9.754;2023-03-11T01:41:42;7.05;;;3.05;;
30533;SDS011;17318;52.390;9.754;2023-03-11T01:44:10;5.60;;;2.75;;
30533;SDS011;17318;52.390;9.754;2023-03-11T01:49:26;3.97;;;2.45;;
30533;SDS011;17318;52.390;9.754;2023-03-11T01:51:56;3.65;;;2.13;;
30533;SDS011;17318;52.390;9.754;2023-03-11T01:54:27;5.90;;;2.92;;
30533;SDS011;17318;52.390;9.754;2023-03-11T01:56:55;4.05;;;2.78;;
30533;SDS011;17318;52.390;9.754;2023-03-11T01:59:24;5.28;;;3.20;;
30533;SDS011;17318;52.390;9.754;2023-03-11T02:01:59;5.07;;;3.63;;
30533;SDS011;17318;52.390;9.754;2023-03-11T02:04:32;4.97;;;3.08;;
30533;SDS011;17318;52.390;9.754;2023-03-11T02:07:00;6.85;;;3.33;;
30533;SDS011;17318;52.390;9.754;2023-03-11T02:09:26;7.53;;;3.80;;
30533;SDS011;17318;52.390;9.754;2023-03-11T02:11:52;4.45;;;3.30;;
30533;SDS011;17318;52.390;9.754;2023-03-11T02:14:18;6.88;;;3.30;;
30533;SDS011;17318;52.390;9.754;2023-03-11T02:16:44;11.88;;;3.63;;
30533;SDS011;17318;52.390;9.754;2023-03-11T02:19:29;8.00;;;3.80;;
30533;SDS011;17318;52.390;9.754;2023-03-11T02:22:01;6.13;;;3.58;;
30533;SDS011;17318;52.390;9.754;2023-03-11T02:24:44;5.53;;;3.33;;
30533;SDS011;17318;52.390;9.754;2023-03-11T02:27:18;5.53;;;3.33;;
30533;SDS011;17318;52.390;9.754;2023-03-11T02:29:45;7.22;;;3.38;;
30533;SDS011;17318;52.390;9.754;2023-03-11T02:32:13;7.55;;;3.55;;
30533;SDS011;17318;52.390;9.754;2023-03-11T02:34:40;7.15;;;3.30;;
30533;SDS011;17318;52.390;9.754;2023-03-11T02:37:10;3.92;;;2.72;;
30533;SDS011;17318;52.390;9.754;2023-03-11T02:39:41;8.18;;;3.22;;
30533;SDS011;17318;52.390;9.754;2023-03-11T02:42:30;6.90;;;3.30;;
30533;SDS011;17318;52.390;9.754;2023-03-11T02:45:00;10.55;;;3.53;;
30533;SDS011;17318;52.390;9.754;2023-03-11T02:47:29;8.55;;;3.40;;
30533;SDS011;17318;52.390;9.754;2023-03-11T02:49:56;9.18;;;3.40;;
30533;SDS011;17318;52.390;9.754;2023-03-11T02:52:24;6.68;;;4.18;;
30533;SDS011;17318;52.390;9.754;2023-03-11T02:54:52;4.47;;;3.40;;
30533;SDS011;17318;52.390;9.754;2023-03-11T02:57:18;8.23;;;3.25;;
30533;SDS011;17318;52.390;9.754;2023-03-11T02:59:43;7.70;;;2.95;;
30533;SDS011;17318;52.390;9.754;2023-03-11T03:02:09;5.95;;;3.33;;
30533;SDS011;17318;52.390;9.754;2023-03-11T03:04:35;4.53;;;2.80;;
30533;SDS011;17318;52.390;9.754;2023-03-11T03:07:00;8.68;;;3.67;;
30533;SDS011;17318;52.390;9.754;2023-03-11T03:09:26;7.90;;;3.30;;
30533;SDS011;17318;52.390;9.754;2023-03-11T03:11:52;5.70;;;3.35;;
30533;SDS011;17318;52.390;9.754;2023-03-11T03:14:17;5.90;;;3.60;;
30533;SDS011;17318;52.390;9.754;2023-03-11T03:16:43;8.02;;;3.50;;
30533;SDS011;17318;52.390;9.754;2023-03-11T03:19:09;5.57;;;2.95;;
30533;SDS011;17318;52.390;9.754;2023-03-11T03:21:34;8.82;;;3.58;;
30533;SDS011;17318;52.390;9.754;2023-03-11T03:24:00;9.15;;;2.65;;
30533;SDS011;17318;52.390;9.754;2023-03-11T03:26:25;8.13;;;3.53;;
30533;SDS011;17318;52.390;9.754;2023-03-11T03:28:51;8.32;;;2.85;;
30533;SDS011;17318;52.390;9.754;2023-03-11T03:31:17;6.97;;;2.95;;
30533;SDS011;17318;52.390;9.754;2023-03-11T03:33:42;5.35;;;2.65;;
30533;SDS011;17318;52.390;9.754;2023-03-11T03:36:09;11.45;;;3.15;;
30533;SDS011;17318;52.390;9.754;2023-03-11T03:38:37;8.48;;;2.80;;
30533;SDS011;17318;52.390;9.754;2023-03-11T03:41:03;7.97;;;3.22;;
30533;SDS011;17318;52.390;9.754;2023-03-11T03:43:29;9.85;;;2.70;;
30533;SDS011;17318;52.390;9.754;2023-03-11T03:45:55;13.35;;;5.05;;
30533;SDS011;17318;52.390;9.754;2023-03-11T03:48:26;5.13;;;2.78;;
30533;SDS011;17318;52.390;9.754;2023-03-11T03:50:52;7.40;;;2.83;;
30533;SDS011;17318;52.390;9.754;2023-03-11T03:53:18;5.97;;;2.22;;
30533;SDS011;17318;52.390;9.754;2023-03-11T03:55:44;7.93;;;3.03;;
30533;SDS011;17318;52.390;9.754;2023-03-11T03:58:10;10.80;;;2.97;;
30533;SDS011;17318;52.390;9.754;2023-03-11T04:00:36;5.75;;;2.80;;
30533;SDS011;17318;52.390;9.754;2023-03-11T04:03:02;18.98;;;2.80;;
30533;SDS011;17318;52.390;9.754;2023-03-11T04:05:28;5.10;;;2.50;;
30533;SDS011;17318;52.390;9.754;2023-03-11T04:07:53;7.85;;;2.70;;
30533;SDS011;17318;52.390;9.754;2023-03-11T04:10:19;6.30;;;2.25;;
30533;SDS011;17318;52.390;9.754;2023-03-11T04:12:45;7.05;;;2.13;;
30533;SDS011;17318;52.390;9.754;2023-03-11T04:15:10;12.15;;;2.42;;
30533;SDS011;17318;52.390;9.754;2023-03-11T04:17:36;11.68;;;2.42;;
30533;SDS011;17318;52.390;9.754;2023-03-11T04:20:02;8.10;;;2.30;;
30533;SDS011;17318;52.390;9.754;2023-03-11T04:22:31;4.82;;;2.40;;
30533;SDS011;17318;52.390;9.754;2023-03-11T04:24:56;8.20;;;2.58;;
30533;SDS011;17318;52.390;9.754;2023-03-11T04:27:22;5.05;;;2.13;;
30533;SDS011;17318;52.390;9.754;2023-03-11T04:29:48;6.72;;;2.00;;
30533;SDS011;17318;52.390;9.754;2023-03-11T04:32:14;10.40;;;2.40;;
30533;SDS011;17318;52.390;9.754;2023-03-11T04:34:39;10.52;;;2.60;;
30533;SDS011;17318;52.390;9.754;2023-03-11T04:37:06;10.00;;;2.53;;
30533;SDS011;17318;52.390;9.754;2023-03-11T04:39:31;6.63;;;2.33;;
30533;SDS011;17318;52.390;9.754;2023-03-11T04:41:57;9.57;;;2.50;;
30533;SDS011;17318;52.390;9.754;2023-03-11T04:44:23;10.45;;;2.10;;
30533;SDS011;17318;52.390;9.754;2023-03-11T04:46:48;10.23;;;1.80;;
30533;SDS011;17318;52.390;9.754;2023-03-11T04:49:14;7.70;;;1.75;;
30533;SDS011;17318;52.390;9.754;2023-03-11T04:51:40;9.48;;;1.80;;
30533;SDS011;17318;52.390;9.754;2023-03-11T04:54:06;10.82;;;2.05;;
30533;SDS011;17318;52.390;9.754;2023-03-11T04:56:32;9.75;;;2.80;;
30533;SDS011;17318;52.390;9.754;2023-03-11T04:58:58;11.95;;;2.30;;
30533;SDS011;17318;52.390;9.754;2023-03-11T05:01:24;8.20;;;1.85;;
30533;SDS011;17318;52.390;9.754;2023-03-11T05:03:49;7.32;;;1.77;;
30533;SDS011;17318;52.390;9.754;2023-03-11T05:06:15;4.82;;;1.67;;
30533;SDS011;17318;52.390;9.754;2023-03-11T05:08:40;11.25;;;1.88;;
30533;SDS011;17318;52.390;9.754;2023-03-11T05:11:06;6.97;;;1.60;;
30533;SDS011;17318;52.390;9.754;2023-03-11T05:13:32;6.38;;;1.55;;
30533;SDS011;17318;52.390;9.754;2023-03-11T05:15:58;8.70;;;1.73;;
30533;SDS011;17318;52.390;9.754;2023-03-11T05:18:24;10.48;;;1.35;;
30533;SDS011;17318;52.390;9.754;2023-03-11T05:20:49;9.35;;;2.30;;
30533;SDS011;17318;52.390;9.754;2023-03-11T05:23:15;9.63;;;1.70;;
30533;SDS011;17318;52.390;9.754;2023-03-11T05:25:41;6.35;;;1.67;;
30533;SDS011;17318;52.390;9.754;2023-03-11T05:28:07;5.38;;;1.65;;
30533;SDS011;17318;52.390;9.754;2023-03-11T05:30:32;7.28;;;1.77;;
30533;SDS011;17318;52.390;9.754;2023-03-11T05:32:58;7.10;;;1.70;;
30533;SDS011;17318;52.390;9.754;2023-03-11T05:35:24;2.22;;;1.02;;
30533;SDS011;17318;52.390;9.754;2023-03-11T05:37:49;4.50;;;1.85;;
30533;SDS011;17318;52.390;9.754;2023-03-11T05:40:17;4.43;;;1.10;;
30533;SDS011;17318;52.390;9.754;2023-03-11T05:42:43;9.05;;;1.92;;
30533;SDS011;17318;52.390;9.754;2023-03-11T05:45:09;8.35;;;1.73;;
30533;SDS011;17318;52.390;9.754;2023-03-11T05:47:35;5.75;;;1.23;;
30533;SDS011;17318;52.390;9.754;2023-03-11T05:50:00;6.60;;;1.55;;
30533;SDS011;17318;52.390;9.754;2023-03-11T05:52:26;12.57;;;1.58;;
30533;SDS011;17318;52.390;9.754;2023-03-11T05:57:19;9.20;;;1.65;;
30533;SDS011;17318;52.390;9.754;2023-03-11T05:59:45;7.90;;;1.67;;
30533;SDS011;17318;52.390;9.754;2023-03-11T06:02:11;3.92;;;1.60;;
30533;SDS011;17318;52.390;9.754;2023-03-11T06:04:37;7.45;;;1.33;;
30533;SDS011;17318;52.390;9.754;2023-03-11T06:07:03;8.85;;;2.13;;
30533;SDS011;17318;52.390;9.754;2023-03-11T06:09:28;7.30;;;1.33;;
30533;SDS011;17318;52.390;9.754;2023-03-11T06:11:54;5.38;;;1.33;;
30533;SDS011;17318;52.390;9.754;2023-03-11T06:14:20;10.77;;;1.95;;
30533;SDS011;17318;52.390;9.754;2023-03-11T06:16:45;11.07;;;1.40;;
30533;SDS011;17318;52.390;9.754;2023-03-11T06:19:11;7.68;;;1.40;;
30533;SDS011;17318;52.390;9.754;2023-03-11T06:21:37;8.68;;;2.17;;
30533;SDS011;17318;52.390;9.754;2023-03-11T06:24:03;9.18;;;1.42;;
30533;SDS011;17318;52.390;9.754;2023-03-11T06:26:29;8.48;;;1.70;;
30533;SDS011;17318;52.390;9.754;2023-03-11T06:28:54;5.13;;;1.58;;
30533;SDS011;17318;52.390;9.754;2023-03-11T06:31:21;4.05;;;1.45;;
30533;SDS011;17318;52.390;9.754;2023-03-11T06:33:52;7.82;;;1.48;;
30533;SDS011;17318;52.390;9.754;2023-03-11T06:38:46;8.10;;;1.17;;
30533;SDS011;17318;52.390;9.754;2023-03-11T06:41:13;9.27;;;1.70;;
30533;SDS011;17318;52.390;9.754;2023-03-11T06:43:39;13.10;;;1.85;;
30533;SDS011;17318;52.390;9.754;2023-03-11T06:46:11;7.93;;;1.33;;
30533;SDS011;17318;52.390;9.754;2023-03-11T06:48:39;7.72;;;1.38;;
30533;SDS011;17318;52.390;9.754;2023-03-11T06:51:05;8.93;;;1.60;;
30533;SDS011;17318;52.390;9.754;2023-03-11T06:53:30;9.23;;;1.58;;
30533;SDS011;17318;52.390;9.754;2023-03-11T06:56:06;6.32;;;1.58;;
30533;SDS011;17318;52.390;9.754;2023-03-11T06:58:34;8.63;;;1.77;;
30533;SDS011;17318;52.390;9.754;2023-03-11T07:01:06;5.53;;;1.42;;
30533;SDS011;17318;52.390;9.754;2023-03-11T07:03:44;7.03;;;1.75;;
30533;SDS011;17318;52.390;9.754;2023-03-11T07:06:15;5.50;;;1.20;;
30533;SDS011;17318;52.390;9.754;2023-03-11T07:08:42;7.57;;;1.70;;
30533;SDS011;17318;52.390;9.754;2023-03-11T07:11:12;6.38;;;1.35;;
30533;SDS011;17318;52.390;9.754;2023-03-11T07:13:42;10.32;;;1.33;;
30533;SDS011;17318;52.390;9.754;2023-03-11T07:16:12;7.22;;;1.20;;
30533;SDS011;17318;52.390;9.754;2023-03-11T07:18:46;3.55;;;1.08;;
30533;SDS011;17318;52.390;9.754;2023-03-11T07:21:13;4.90;;;1.70;;
30533;SDS011;17318;52.390;9.754;2023-03-11T07:23:40;7.57;;;1.45;;
30533;SDS011;17318;52.390;9.754;2023-03-11T07:26:11;6.25;;;1.60;;
30533;SDS011;17318;52.390;9.754;2023-03-11T07:28:38;11.50;;;2.00;;
30533;SDS011;17318;52.390;9.754;2023-03-11T07:31:15;10.90;;;2.22;;
30533;SDS011;17318;52.390;9.754;2023-03-11T07:33:43;21.70;;;2.00;;
30533;SDS011;17318;52.390;9.754;2023-03-11T07:36:13;9.68;;;2.10;;
30533;SDS011;17318;52.390;9.754;2023-03-11T07:38:41;11.63;;;1.77;;
30533;SDS011;17318;52.390;9.754;2023-03-11T07:41:07;6.78;;;1.25;;
30533;SDS011;17318;52.390;9.754;2023-03-11T07:43:37;11.77;;;1.70;;
30533;SDS011;17318;52.390;9.754;2023-03-11T07:46:05;9.25;;;1.60;;
30533;SDS011;17318;52.390;9.754;2023-03-11T07:48:32;9.05;;;1.90;;
30533;SDS011;17318;52.390;9.754;2023-03-11T07:51:06;8.77;;;1.40;;
30533;SDS011;17318;52.390;9.754;2023-03-11T07:53:52;8.50;;;2.05;;
30533;SDS011;17318;52.390;9.754;2023-03-11T07:56:20;7.55;;;1.45;;
30533;SDS011;17318;52.390;9.754;2023-03-11T07:58:48;2.83;;;1.20;;
30533;SDS011;17318;52.390;9.754;2023-03-11T08:01:15;7.05;;;1.60;;
30533;SDS011;17318;52.390;9.754;2023-03-11T08:03:43;10.55;;;1.80;;
30533;SDS011;17318;52.390;9.754;2023-03-11T08:06:11;9.33;;;1.63;;
30533;SDS011;17318;52.390;9.754;2023-03-11T08:08:38;6.85;;;1.75;;
30533;SDS011;17318;52.390;9.754;2023-03-11T08:11:04;4.93;;;1.52;;
30533;SDS011;17318;52.390;9.754;2023-03-11T08:13:31;4.82;;;1.13;;
30533;SDS011;17318;52.390;9.754;2023-03-11T08:15:57;5.78;;;1.38;;
30533;SDS011;17318;52.390;9.754;2023-03-11T08:18:22;8.88;;;1.55;;
30533;SDS011;17318;52.390;9.754;2023-03-11T08:20:48;6.28;;;1.88;;
30533;SDS011;17318;52.390;9.754;2023-03-11T08:23:14;6.10;;;2.22;;
30533;SDS011;17318;52.390;9.754;2023-03-11T08:25:40;14.23;;;1.92;;
30533;SDS011;17318;52.390;9.754;2023-03-11T08:28:06;8.98;;;2.17;;
30533;SDS011;17318;52.390;9.754;2023-03-11T08:30:33;8.80;;;3.33;;
30533;SDS011;17318;52.390;9.754;2023-03-11T08:32:58;6.05;;;2.17;;
30533;SDS011;17318;52.390;9.754;2023-03-11T08:35:24;8.73;;;1.98;;
30533;SDS011;17318;52.390;9.754;2023-03-11T08:37:51;4.93;;;1.60;;
30533;SDS011;17318;52.390;9.754;2023-03-11T08:40:17;15.98;;;2.47;;
30533;SDS011;17318;52.390;9.754;2023-03-11T08:42:42;12.23;;;1.70;;
30533;SDS011;17318;52.390;9.754;2023-03-11T08:45:09;9.13;;;1.92;;
30533;SDS011;17318;52.390;9.754;2023-03-11T08:47:36;5.55;;;2.08;;
30533;SDS011;17318;52.390;9.754;2023-03-11T08:50:03;10.50;;;2.55;;
30533;SDS011;17318;52.390;9.754;2023-03-11T08:52:31;9.82;;;1.77;;
30533;SDS011;17318;52.390;9.754;2023-03-11T08:54:56;8.75;;;2.28;;
30533;SDS011;17318;52.390;9.754;2023-03-11T08:57:22;4.03;;;1.60;;
30533;SDS011;17318;52.390;9.754;2023-03-11T08:59:48;6.57;;;1.48;;
30533;SDS011;17318;52.390;9.754;2023-03-11T09:02:14;6.43;;;1.80;;
30533;SDS011;17318;52.390;9.754;2023-03-11T09:04:39;5.85;;;1.52;;
30533;SDS011;17318;52.390;9.754;2023-03-11T09:07:05;7.00;;;1.33;;
30533;SDS011;17318;52.390;9.754;2023-03-11T09:09:30;4.53;;;1.50;;
30533;SDS011;17318;52.390;9.754;2023-03-11T09:11:56;5.90;;;1.60;;
30533;SDS011;17318;52.390;9.754;2023-03-11T09:14:22;1.85;;;0.90;;
30533;SDS011;17318;52.390;9.754;2023-03-11T09:16:47;6.93;;;1.52;;
30533;SDS011;17318;52.390;9.754;2023-03-11T09:19:13;5.57;;;1.63;;
30533;SDS011;17318;52.390;9.754;2023-03-11T09:21:39;6.50;;;1.65;;
30533;SDS011;17318;52.390;9.754;2023-03-11T09:24:05;4.15;;;1.63;;
30533;SDS011;17318;52.390;9.754;2023-03-11T09:26:31;9.93;;;2.10;;
30533;SDS011;17318;52.390;9.754;2023-03-11T09:28:57;5.60;;;1.67;;
30533;SDS011;17318;52.390;9.754;2023-03-11T09:31:23;4.78;;;1.35;;
30533;SDS011;17318;52.390;9.754;2023-03-11T09:33:48;10.35;;;1.70;;
30533;SDS011;17318;52.390;9.754;2023-03-11T09:36:17;5.40;;;1.20;;
30533;SDS011;17318;52.390;9.754;2023-03-11T09:38:44;5.72;;;1.67;;
30533;SDS011;17318;52.390;9.754;2023-03-11T09:52:18;3.33;;;1.20;;
30533;SDS011;17318;52.390;9.754;2023-03-11T09:54:51;5.30;;;1.60;;
30533;SDS011;17318;52.390;9.754;2023-03-11T09:57:20;4.15;;;1.30;;
30533;SDS011;17318;52.390;9.754;2023-03-11T09:59:49;9.30;;;1.55;;
30533;SDS011;17318;52.390;9.754;2023-03-11T10:02:19;4.53;;;1.40;;
30533;SDS011;17318;52.390;9.754;2023-03-11T10:04:51;2.85;;;1.30;;
30533;SDS011;17318;52.390;9.754;2023-03-11T10:07:27;4.63;;;1.67;;
30533;SDS011;17318;52.390;9.754;2023-03-11T10:09:58;11.95;;;2.78;;
30533;SDS011;17318;52.390;9.754;2023-03-11T10:12:32;19.98;;;10.20;;
30533;SDS011;17318;52.390;9.754;2023-03-11T10:17:56;5.13;;;3.40;;
30533;SDS011;17318;52.390;9.754;2023-03-11T10:23:14;2.55;;;1.50;;
30533;SDS011;17318;52.390;9.754;2023-03-11T10:28:35;7.13;;;1.50;;
30533;SDS011;17318;52.390;9.754;2023-03-11T10:31:18;5.88;;;1.50;;
30533;SDS011;17318;52.390;9.754;2023-03-11T10:33:51;5.82;;;1.50;;
30533;SDS011;17318;52.390;9.754;2023-03-11T10:36:22;9.98;;;1.55;;
30533;SDS011;17318;52.390;9.754;2023-03-11T10:38:52;9.77;;;1.52;;
30533;SDS011;17318;52.390;9.754;2023-03-11T10:41:25;3.95;;;1.15;;
30533;SDS011;17318;52.390;9.754;2023-03-11T10:46:24;6.55;;;1.70;;
30533;SDS011;17318;52.390;9.754;2023-03-11T10:48:51;7.30;;;1.42;;
30533;SDS011;17318;52.390;9.754;2023-03-11T10:51:17;6.18;;;1.63;;
30533;SDS011;17318;52.390;9.754;2023-03-11T10:53:50;11.60;;;2.47;;
30533;SDS011;17318;52.390;9.754;2023-03-11T10:56:25;3.33;;;1.40;;
30533;SDS011;17318;52.390;9.754;2023-03-11T10:58:59;4.57;;;1.45;;
30533;SDS011;17318;52.390;9.754;2023-03-11T11:01:26;5.45;;;1.33;;
30533;SDS011;17318;52.390;9.754;2023-03-11T11:03:53;8.52;;;1.33;;
30533;SDS011;17318;52.390;9.754;2023-03-11T11:11:31;3.45;;;1.35;;
30533;SDS011;17318;52.390;9.754;2023-03-11T11:13:59;6.53;;;1.52;;
30533;SDS011;17318;52.390;9.754;2023-03-11T11:16:25;9.88;;;4.20;;
30533;SDS011;17318;52.390;9.754;2023-03-11T11:26:25;4.90;;;1.17;;
30533;SDS011;17318;52.390;9.754;2023-03-11T11:31:38;5.60;;;1.95;;
30533;SDS011;17318;52.390;9.754;2023-03-11T11:36:51;5.07;;;1.98;;
30533;SDS011;17318;52.390;9.754;2023-03-11T11:39:17;3.28;;;1.50;;
30533;SDS011;17318;52.390;9.754;2023-03-11T11:41:45;15.90;;;2.80;;
30533;SDS011;17318;52.390;9.754;2023-03-11T11:44:14;6.80;;;1.75;;
30533;SDS011;17318;52.390;9.754;2023-03-11T11:47:09;6.03;;;1.70;;
30533;SDS011;17318;52.390;9.754;2023-03-11T11:49:51;4.93;;;1.48;;
30533;SDS011;17318;52.390;9.754;2023-03-11T11:52:25;6.72;;;1.23;;
30533;SDS011;17318;52.390;9.754;2023-03-11T11:55:08;7.43;;;1.65;;
30533;SDS011;17318;52.390;9.754;2023-03-11T11:57:44;8.02;;;1.85;;
30533;SDS011;17318;52.390;9.754;2023-03-11T12:00:17;9.15;;;2.35;;
30533;SDS011;17318;52.390;9.754;2023-03-11T12:03:10;6.45;;;1.63;;
30533;SDS011;17318;52.390;9.754;2023-03-11T12:05:52;5.25;;;1.55;;
30533;SDS011;17318;52.390;9.754;2023-03-11T12:11:03;3.10;;;1.20;;
30533;SDS011;17318;52.390;9.754;2023-03-11T12:16:25;4.75;;;1.77;;
30533;SDS011;17318;52.390;9.754;2023-03-11T12:19:19;4.75;;;1.50;;
30533;SDS011;17318;52.390;9.754;2023-03-11T12:22:14;8.40;;;1.58;;
30533;SDS011;17318;52.390;9.754;2023-03-11T12:30:23;5.20;;;1.98;;
30533;SDS011;17318;52.390;9.754;2023-03-11T12:33:04;13.02;;;1.80;;
30533;SDS011;17318;52.390;9.754;2023-03-11T12:35:35;14.10;;;4.28;;
30533;SDS011;17318;52.390;9.754;2023-03-11T12:40:59;7.55;;;2.10;;
30533;SDS011;17318;52.390;9.754;2023-03-11T12:46:00;5.95;;;1.48;;
30533;SDS011;17318;52.390;9.754;2023-03-11T12:48:33;5.00;;;1.60;;
30533;SDS011;17318;52.390;9.754;2023-03-11T12:51:01;6.70;;;2.38;;
30533;SDS011;17318;52.390;9.754;2023-03-11T12:53:45;10.82;;;1.52;;
30533;SDS011;17318;52.390;9.754;2023-03-11T12:59:01;3.35;;;1.40;;
30533;SDS011;17318;52.390;9.754;2023-03-11T13:01:57;7.30;;;1.60;;
30533;SDS011;17318;52.390;9.754;2023-03-11T13:04:38;6.00;;;1.17;;
30533;SDS011;17318;52.390;9.754;2023-03-11T13:07:36;6.33;;;1.83;;
30533;SDS011;17318;52.390;9.754;2023-03-11T13:10:11;9.10;;;1.85;;
30533;SDS011;17318;52.390;9.754;2023-03-11T13:12:41;9.05;;;1.48;;
30533;SDS011;17318;52.390;9.754;2023-03-11T13:30:54;6.15;;;1.30;;
30533;SDS011;17318;52.390;9.754;2023-03-11T13:33:34;4.50;;;1.73;;
30533;SDS011;17318;52.390;9.754;2023-03-11T13:39:17;2.65;;;1.23;;
30533;SDS011;17318;52.390;9.754;2023-03-11T13:41:50;5.03;;;1.38;;
30533;SDS011;17318;52.390;9.754;2023-03-11T13:46:43;6.97;;;1.63;;
30533;SDS011;17318;52.390;9.754;2023-03-11T13:52:06;6.80;;;1.30;;
30533;SDS011;17318;52.390;9.754;2023-03-11T13:54:41;8.18;;;1.17;;
30533;SDS011;17318;52.390;9.754;2023-03-11T13:59:55;6.07;;;1.00;;
30533;SDS011;17318;52.390;9.754;2023-03-11T14:02:23;5.22;;;1.23;;
30533;SDS011;17318;52.390;9.754;2023-03-11T14:05:13;4.45;;;1.17;;
30533;SDS011;17318;52.390;9.754;2023-03-11T14:07:41;3.67;;;0.93;;
30533;SDS011;17318;52.390;9.754;2023-03-11T14:12:38;6.53;;;1.40;;
30533;SDS011;17318;52.390;9.754;2023-03-11T14:15:05;5.47;;;1.17;;
30533;SDS011;17318;52.390;9.754;2023-03-11T14:17:32;5.30;;;1.00;;
30533;SDS011;17318;52.390;9.754;2023-03-11T14:20:05;9.68;;;1.25;;
30533;SDS011;17318;52.390;9.754;2023-03-11T14:22:35;13.20;;;1.85;;
30533;SDS011;17318;52.390;9.754;2023-03-11T14:25:06;4.80;;;1.23;;
30533;SDS011;17318;52.390;9.754;2023-03-11T14:27:34;5.20;;;1.30;;
30533;SDS011;17318;52.390;9.754;2023-03-11T14:30:02;5.85;;;1.23;;
30533;SDS011;17318;52.390;9.754;2023-03-11T14:32:30;6.17;;;1.53;;
30533;SDS011;17318;52.390;9.754;2023-03-11T14:34:58;5.57;;;1.30;;
30533;SDS011;17318;52.390;9.754;2023-03-11T14:37:37;4.00;;;1.00;;
30533;SDS011;17318;52.390;9.754;2023-03-11T14:40:17;4.15;;;1.08;;
30533;SDS011;17318;52.390;9.754;2023-03-11T14:42:58;6.45;;;0.90;;
30533;SDS011;17318;52.390;9.754;2023-03-11T14:45:28;5.20;;;1.02;;
30533;SDS011;17318;52.390;9.754;2023-03-11T14:48:02;8.07;;;1.33;;
30533;SDS011;17318;52.390;9.754;2023-03-11T14:53:05;6.55;;;1.73;;
30533;SDS011;17318;52.390;9.754;2023-03-11T14:55:55;10.70;;;1.58;;
30533;SDS011;17318;52.390;9.754;2023-03-11T14:58:39;6.72;;;1.10;;
30533;SDS011;17318;52.390;9.754;2023-03-11T15:06:24;8.45;;;1.60;;
30533;SDS011;17318;52.390;9.754;2023-03-11T15:11:26;6.03;;;0.88;;
30533;SDS011;17318;52.390;9.754;2023-03-11T15:13:53;3.15;;;0.85;;
30533;SDS011;17318;52.390;9.754;2023-03-11T15:16:33;7.60;;;1.23;;
30533;SDS011;17318;52.390;9.754;2023-03-11T15:21:49;3.58;;;0.77;;
30533;SDS011;17318;52.390;9.754;2023-03-11T15:24:20;1.48;;;0.80;;
30533;SDS011;17318;52.390;9.754;2023-03-11T15:27:06;4.93;;;1.25;;
30533;SDS011;17318;52.390;9.754;2023-03-11T15:29:52;9.27;;;1.98;;
30533;SDS011;17318;52.390;9.754;2023-03-11T15:32:25;5.35;;;1.33;;
30533;SDS011;17318;52.390;9.754;2023-03-11T15:37:32;2.70;;;0.75;;
30533;SDS011;17318;52.390;9.754;2023-03-11T15:42:46;10.02;;;1.40;;
30533;SDS011;17318;52.390;9.754;2023-03-11T15:47:42;8.68;;;1.27;;
30533;SDS011;17318;52.390;9.754;2023-03-11T15:50:13;5.53;;;1.20;;
30533;SDS011;17318;52.390;9.754;2023-03-11T15:52:40;7.35;;;1.40;;
30533;SDS011;17318;52.390;9.754;2023-03-11T15:55:06;5.75;;;0.80;;
30533;SDS011;17318;52.390;9.754;2023-03-11T15:57:35;3.53;;;0.90;;
30533;SDS011;17318;52.390;9.754;2023-03-11T16:00:02;6.25;;;1.00;;
30533;SDS011;17318;52.390;9.754;2023-03-11T16:02:29;4.90;;;1.00;;
30533;SDS011;17318;52.390;9.754;2023-03-11T16:04:56;5.57;;;1.13;;
30533;SDS011;17318;52.390;9.754;2023-03-11T16:07:22;3.47;;;0.85;;
30533;SDS011;17318;52.390;9.754;2023-03-11T16:09:48;6.40;;;1.33;;
30533;SDS011;17318;52.390;9.754;2023-03-11T16:12:17;7.50;;;1.88;;
30533;SDS011;17318;52.390;9.754;2023-03-11T16:14:45;7.43;;;1.42;;
30533;SDS011;17318;52.390;9.754;2023-03-11T16:17:12;10.30;;;2.33;;
30533;SDS011;17318;52.390;9.754;2023-03-11T16:19:42;9.27;;;1.80;;
30533;SDS011;17318;52.390;9.754;2023-03-11T16:22:15;5.43;;;1.00;;
30533;SDS011;17318;52.390;9.754;2023-03-11T16:24:43;5.18;;;1.58;;
30533;SDS011;17318;52.390;9.754;2023-03-11T16:27:15;9.20;;;1.52;;
30533;SDS011;17318;52.390;9.754;2023-03-11T16:29:42;9.65;;;1.20;;
30533;SDS011;17318;52.390;9.754;2023-03-11T16:32:08;5.53;;;1.73;;
30533;SDS011;17318;52.390;9.754;2023-03-11T16:34:36;6.85;;;1.23;;
30533;SDS011;17318;52.390;9.754;2023-03-11T16:37:03;7.38;;;1.35;;
30533;SDS011;17318;52.390;9.754;2023-03-11T16:39:32;5.45;;;1.25;;
30533;SDS011;17318;52.390;9.754;2023-03-11T16:41:58;2.92;;;1.30;;
30533;SDS011;17318;52.390;9.754;2023-03-11T16:44:24;7.15;;;1.98;;
30533;SDS011;17318;52.390;9.754;2023-03-11T16:46:49;4.68;;;1.23;;
30533;SDS011;17318;52.390;9.754;2023-03-11T16:49:15;3.25;;;1.25;;
30533;SDS011;17318;52.390;9.754;2023-03-11T16:51:41;4.70;;;1.55;;
30533;SDS011;17318;52.390;9.754;2023-03-11T16:54:07;5.10;;;1.17;;